SJX838 RCTP-RJGG
Flight info
| Callsign | SJX838 |
|---|---|
| Flight time | 2h 14m |
| Altitude | 39000 |
| Route | MOLKA1C MOLKA M750 IMPAL Y755 CARDS |
| Aircraft | A35K/H-SDE2E3GHIJ3J4J5LM1ORWXY/LB1D1 |
Departure
| Time | 2026-05-06 13:47 |
|---|---|
| Airport | Taiwan Taoyuan International Airport (RCTP) |
Arrival
| Time | 2026-05-06 16:01 |
|---|---|
| Airport | Chubu Centrair International Airport (RJGG) |
| Time | Latitude | Longitude | Altitude | Speed | Heading |
|---|---|---|---|---|---|
| 2026-05-06 12:52 | 25.07808 | 121.22917 | 107 ft | 0 kts | 139° |
| 2026-05-06 13:33 | 25.07815 | 121.22910 | 106 ft | 3 kts | 139° |
| 2026-05-06 13:33 | 25.07830 | 121.22896 | 104 ft | 3 kts | 139° |
| 2026-05-06 13:33 | 25.07845 | 121.22881 | 104 ft | 3 kts | 139° |
| 2026-05-06 13:34 | 25.07861 | 121.22866 | 105 ft | 3 kts | 139° |
| 2026-05-06 13:34 | 25.07875 | 121.22853 | 104 ft | 3 kts | 154° |
| 2026-05-06 13:34 | 25.07888 | 121.22850 | 106 ft | 3 kts | 215° |
| 2026-05-06 13:34 | 25.07898 | 121.22860 | 106 ft | 1 kts | 229° |
| 2026-05-06 13:35 | 25.07909 | 121.22874 | 105 ft | 3 kts | 229° |
| 2026-05-06 13:35 | 25.07921 | 121.22889 | 105 ft | 2 kts | 229° |
| 2026-05-06 13:35 | 25.07923 | 121.22892 | 105 ft | 0 kts | 229° |
| 2026-05-06 13:39 | 25.07918 | 121.22885 | 107 ft | 4 kts | 229° |
| 2026-05-06 13:40 | 25.07870 | 121.22824 | 107 ft | 14 kts | 229° |
| 2026-05-06 13:40 | 25.07803 | 121.22737 | 107 ft | 16 kts | 229° |
| 2026-05-06 13:40 | 25.07780 | 121.22660 | 107 ft | 7 kts | 298° |
| 2026-05-06 13:40 | 25.07797 | 121.22603 | 107 ft | 9 kts | 266° |
| 2026-05-06 13:41 | 25.07754 | 121.22513 | 107 ft | 18 kts | 231° |
| 2026-05-06 13:41 | 25.07653 | 121.22383 | 107 ft | 27 kts | 229° |
| 2026-05-06 13:41 | 25.07516 | 121.22209 | 106 ft | 23 kts | 229° |
| 2026-05-06 13:41 | 25.07502 | 121.22191 | 107 ft | 2 kts | 229° |
| 2026-05-06 13:42 | 25.07487 | 121.22172 | 106 ft | 5 kts | 229° |
| 2026-05-06 13:42 | 25.07475 | 121.22157 | 106 ft | 0 kts | 229° |
| 2026-05-06 13:43 | 25.07474 | 121.22156 | 106 ft | 1 kts | 229° |
| 2026-05-06 13:44 | 25.07452 | 121.22128 | 106 ft | 10 kts | 229° |
| 2026-05-06 13:44 | 25.07389 | 121.22047 | 106 ft | 18 kts | 229° |
| 2026-05-06 13:44 | 25.07290 | 121.21919 | 106 ft | 25 kts | 229° |
| 2026-05-06 13:44 | 25.07189 | 121.21787 | 107 ft | 12 kts | 243° |
| 2026-05-06 13:45 | 25.07196 | 121.21731 | 107 ft | 8 kts | 293° |
| 2026-05-06 13:45 | 25.07319 | 121.21640 | 107 ft | 9 kts | 24° |
| 2026-05-06 13:45 | 25.07369 | 121.21699 | 107 ft | 14 kts | 48° |
| 2026-05-06 13:46 | 25.07442 | 121.21792 | 107 ft | 19 kts | 50° |
| 2026-05-06 13:46 | 25.07680 | 121.22094 | 108 ft | 88 kts | 49° |
| 2026-05-06 13:46 | 25.08230 | 121.22794 | 106 ft | 151 kts | 49° |
| 2026-05-06 13:46 | 25.08957 | 121.23761 | 498 ft | 174 kts | 50° |
| 2026-05-06 13:47 | 25.09769 | 121.24841 | 1114 ft | 185 kts | 52° |
| 2026-05-06 13:47 | 25.10620 | 121.25883 | 1713 ft | 187 kts | 50° |
| 2026-05-06 13:47 | 25.11524 | 121.27003 | 1973 ft | 205 kts | 51° |
| 2026-05-06 13:47 | 25.12498 | 121.28246 | 2228 ft | 221 kts | 51° |
| 2026-05-06 13:48 | 25.13520 | 121.29564 | 2598 ft | 234 kts | 52° |
| 2026-05-06 13:48 | 25.14627 | 121.31002 | 2846 ft | 256 kts | 51° |
| 2026-05-06 13:48 | 25.15805 | 121.32530 | 3366 ft | 265 kts | 50° |
| 2026-05-06 13:48 | 25.17016 | 121.34100 | 3968 ft | 271 kts | 50° |
| 2026-05-06 13:49 | 25.18252 | 121.35703 | 4531 ft | 278 kts | 49° |
| 2026-05-06 13:49 | 25.19513 | 121.37339 | 5153 ft | 281 kts | 49° |
| 2026-05-06 13:49 | 25.20770 | 121.38970 | 5772 ft | 285 kts | 49° |
| 2026-05-06 13:49 | 25.22067 | 121.40656 | 6369 ft | 290 kts | 49° |
| 2026-05-06 13:50 | 25.23383 | 121.42366 | 6949 ft | 294 kts | 49° |
| 2026-05-06 13:50 | 25.24712 | 121.44096 | 7556 ft | 297 kts | 49° |
| 2026-05-06 13:50 | 25.26055 | 121.45844 | 8150 ft | 300 kts | 49° |
| 2026-05-06 13:50 | 25.27323 | 121.47700 | 8756 ft | 305 kts | 58° |
| 2026-05-06 13:51 | 25.28167 | 121.49848 | 9382 ft | 307 kts | 75° |
| 2026-05-06 13:51 | 25.28667 | 121.52148 | 9981 ft | 310 kts | 78° |
| 2026-05-06 13:51 | 25.29115 | 121.54512 | 10371 ft | 321 kts | 78° |
| 2026-05-06 13:51 | 25.29583 | 121.56974 | 10627 ft | 335 kts | 78° |
| 2026-05-06 13:52 | 25.30071 | 121.59509 | 10867 ft | 349 kts | 78° |
| 2026-05-06 13:52 | 25.30587 | 121.62173 | 11109 ft | 361 kts | 78° |
| 2026-05-06 13:52 | 25.31124 | 121.64929 | 11320 ft | 372 kts | 78° |
| 2026-05-06 13:52 | 25.31677 | 121.67766 | 11574 ft | 382 kts | 78° |
| 2026-05-06 13:53 | 25.32238 | 121.70646 | 12026 ft | 384 kts | 78° |
| 2026-05-06 13:53 | 25.32801 | 121.73536 | 12497 ft | 386 kts | 78° |
| 2026-05-06 13:53 | 25.33370 | 121.76460 | 12863 ft | 391 kts | 78° |
| 2026-05-06 13:53 | 25.33941 | 121.79397 | 13388 ft | 389 kts | 78° |
| 2026-05-06 13:54 | 25.34509 | 121.82323 | 13868 ft | 391 kts | 77° |
| 2026-05-06 13:54 | 25.35074 | 121.85238 | 14180 ft | 395 kts | 77° |
| 2026-05-06 13:54 | 25.35651 | 121.88212 | 14537 ft | 397 kts | 77° |
| 2026-05-06 13:54 | 25.36232 | 121.91210 | 14855 ft | 401 kts | 77° |
| 2026-05-06 13:55 | 25.36818 | 121.94240 | 15191 ft | 404 kts | 77° |
| 2026-05-06 13:55 | 25.37404 | 121.97273 | 15589 ft | 405 kts | 77° |
| 2026-05-06 13:55 | 25.37995 | 122.00336 | 15932 ft | 408 kts | 77° |
| 2026-05-06 13:55 | 25.38588 | 122.03415 | 16299 ft | 411 kts | 77° |
| 2026-05-06 13:56 | 25.39183 | 122.06509 | 16674 ft | 413 kts | 77° |
| 2026-05-06 13:56 | 25.39784 | 122.09632 | 17012 ft | 416 kts | 77° |
| 2026-05-06 13:56 | 25.40377 | 122.12724 | 17380 ft | 418 kts | 77° |
| 2026-05-06 13:56 | 25.40983 | 122.15883 | 17754 ft | 421 kts | 77° |
| 2026-05-06 13:57 | 25.41599 | 122.19059 | 18106 ft | 424 kts | 77° |
| 2026-05-06 13:57 | 25.42409 | 122.22199 | 18423 ft | 426 kts | 70° |
| 2026-05-06 13:57 | 25.43419 | 122.25286 | 18753 ft | 428 kts | 69° |
| 2026-05-06 13:57 | 25.44465 | 122.28377 | 19086 ft | 429 kts | 69° |
| 2026-05-06 13:58 | 25.45513 | 122.31474 | 19418 ft | 431 kts | 69° |
| 2026-05-06 13:58 | 25.46564 | 122.34592 | 19746 ft | 433 kts | 69° |
| 2026-05-06 13:58 | 25.47614 | 122.37713 | 20127 ft | 433 kts | 68° |
| 2026-05-06 13:58 | 25.48651 | 122.40803 | 20447 ft | 435 kts | 68° |
| 2026-05-06 13:59 | 25.49707 | 122.43950 | 20748 ft | 437 kts | 69° |
| 2026-05-06 13:59 | 25.50765 | 122.47110 | 21042 ft | 439 kts | 68° |
| 2026-05-06 13:59 | 25.51828 | 122.50285 | 21334 ft | 441 kts | 68° |
| 2026-05-06 13:59 | 25.52895 | 122.53478 | 21642 ft | 443 kts | 68° |
| 2026-05-06 14:00 | 25.53966 | 122.56680 | 21922 ft | 445 kts | 68° |
| 2026-05-06 14:00 | 25.55044 | 122.59908 | 22205 ft | 447 kts | 68° |
| 2026-05-06 14:00 | 25.56122 | 122.63144 | 22500 ft | 449 kts | 68° |
| 2026-05-06 14:00 | 25.57189 | 122.66347 | 22792 ft | 450 kts | 68° |
| 2026-05-06 14:01 | 25.58274 | 122.69608 | 23065 ft | 452 kts | 68° |
| 2026-05-06 14:01 | 25.59366 | 122.72888 | 23344 ft | 454 kts | 68° |
| 2026-05-06 14:01 | 25.60460 | 122.76181 | 23613 ft | 456 kts | 68° |
| 2026-05-06 14:01 | 25.61557 | 122.79485 | 23831 ft | 458 kts | 68° |
| 2026-05-06 14:02 | 25.62660 | 122.82809 | 24040 ft | 461 kts | 68° |
| 2026-05-06 14:02 | 25.63766 | 122.86146 | 24251 ft | 463 kts | 68° |
| 2026-05-06 14:02 | 25.64881 | 122.89503 | 24475 ft | 465 kts | 68° |
| 2026-05-06 14:02 | 25.66000 | 122.92812 | 24713 ft | 466 kts | 67° |
| 2026-05-06 14:03 | 25.67140 | 122.96177 | 24927 ft | 468 kts | 67° |
| 2026-05-06 14:03 | 25.68284 | 122.99560 | 25131 ft | 470 kts | 67° |
| 2026-05-06 14:03 | 25.69432 | 123.02966 | 25318 ft | 473 kts | 67° |
| 2026-05-06 14:03 | 25.70585 | 123.06388 | 25545 ft | 474 kts | 67° |
| 2026-05-06 14:04 | 25.71738 | 123.09819 | 25752 ft | 476 kts | 67° |
| 2026-05-06 14:04 | 25.72897 | 123.13270 | 25970 ft | 478 kts | 67° |
| 2026-05-06 14:04 | 25.74058 | 123.16733 | 26195 ft | 480 kts | 67° |
| 2026-05-06 14:04 | 25.75206 | 123.20157 | 26442 ft | 481 kts | 67° |
| 2026-05-06 14:05 | 25.76373 | 123.23642 | 26649 ft | 483 kts | 67° |
| 2026-05-06 14:05 | 25.77545 | 123.27145 | 26862 ft | 485 kts | 67° |
| 2026-05-06 14:05 | 25.78721 | 123.30665 | 27085 ft | 487 kts | 67° |
| 2026-05-06 14:05 | 25.79901 | 123.34198 | 27309 ft | 489 kts | 67° |
| 2026-05-06 14:06 | 25.81084 | 123.37744 | 27526 ft | 491 kts | 67° |
| 2026-05-06 14:06 | 25.82273 | 123.41312 | 27743 ft | 493 kts | 67° |
| 2026-05-06 14:06 | 25.83465 | 123.44891 | 27972 ft | 496 kts | 67° |
| 2026-05-06 14:06 | 25.84644 | 123.48437 | 28214 ft | 498 kts | 67° |
| 2026-05-06 14:07 | 25.85941 | 123.51997 | 28413 ft | 498 kts | 62° |
| 2026-05-06 14:07 | 25.87647 | 123.55329 | 28657 ft | 495 kts | 52° |
| 2026-05-06 14:07 | 25.89801 | 123.58291 | 28876 ft | 492 kts | 42° |
| 2026-05-06 14:07 | 25.92345 | 123.60810 | 29107 ft | 489 kts | 33° |
| 2026-05-06 14:08 | 25.95197 | 123.62827 | 29337 ft | 485 kts | 23° |
| 2026-05-06 14:08 | 25.98225 | 123.64479 | 29580 ft | 485 kts | 21° |
| 2026-05-06 14:08 | 26.01292 | 123.66070 | 29824 ft | 487 kts | 20° |
| 2026-05-06 14:08 | 26.04365 | 123.67662 | 30090 ft | 489 kts | 20° |
| 2026-05-06 14:09 | 26.07414 | 123.69248 | 30351 ft | 489 kts | 21° |
| 2026-05-06 14:09 | 26.10491 | 123.70855 | 30686 ft | 489 kts | 21° |
| 2026-05-06 14:09 | 26.13570 | 123.72465 | 30937 ft | 490 kts | 21° |
| 2026-05-06 14:09 | 26.16660 | 123.74082 | 31173 ft | 492 kts | 21° |
| 2026-05-06 14:10 | 26.19763 | 123.75708 | 31411 ft | 493 kts | 21° |
| 2026-05-06 14:10 | 26.22869 | 123.77337 | 31651 ft | 495 kts | 21° |
| 2026-05-06 14:10 | 26.25990 | 123.78975 | 31892 ft | 496 kts | 21° |
| 2026-05-06 14:10 | 26.29116 | 123.80617 | 32112 ft | 497 kts | 21° |
| 2026-05-06 14:11 | 26.32251 | 123.82264 | 32339 ft | 499 kts | 21° |
| 2026-05-06 14:11 | 26.35351 | 123.83894 | 32578 ft | 500 kts | 21° |
| 2026-05-06 14:11 | 26.38488 | 123.85546 | 32910 ft | 498 kts | 21° |
| 2026-05-06 14:11 | 26.41620 | 123.87196 | 33267 ft | 497 kts | 21° |
| 2026-05-06 14:12 | 26.44737 | 123.88838 | 33612 ft | 495 kts | 21° |
| 2026-05-06 14:12 | 26.47852 | 123.90481 | 33984 ft | 494 kts | 21° |
| 2026-05-06 14:12 | 26.50958 | 123.92120 | 34296 ft | 493 kts | 21° |
| 2026-05-06 14:12 | 26.54055 | 123.93754 | 34589 ft | 492 kts | 21° |
| 2026-05-06 14:13 | 26.57154 | 123.95391 | 34877 ft | 492 kts | 21° |
| 2026-05-06 14:13 | 26.60197 | 123.96999 | 35202 ft | 490 kts | 20° |
| 2026-05-06 14:13 | 26.63242 | 123.98725 | 35508 ft | 492 kts | 25° |
| 2026-05-06 14:13 | 26.66074 | 124.00904 | 35772 ft | 498 kts | 35° |
| 2026-05-06 14:14 | 26.68581 | 124.03611 | 36037 ft | 503 kts | 43° |
| 2026-05-06 14:14 | 26.70902 | 124.06552 | 36315 ft | 504 kts | 45° |
| 2026-05-06 14:14 | 26.73159 | 124.09556 | 36596 ft | 505 kts | 46° |
| 2026-05-06 14:14 | 26.75389 | 124.12588 | 36874 ft | 504 kts | 46° |
| 2026-05-06 14:15 | 26.77611 | 124.15623 | 37147 ft | 504 kts | 46° |
| 2026-05-06 14:15 | 26.79837 | 124.18656 | 37419 ft | 503 kts | 46° |
| 2026-05-06 14:15 | 26.82033 | 124.21632 | 37694 ft | 503 kts | 46° |
| 2026-05-06 14:15 | 26.84261 | 124.24641 | 38031 ft | 501 kts | 45° |
| 2026-05-06 14:16 | 26.86482 | 124.27633 | 38358 ft | 499 kts | 45° |
| 2026-05-06 14:16 | 26.88702 | 124.30619 | 38617 ft | 498 kts | 45° |
| 2026-05-06 14:16 | 26.90918 | 124.33599 | 38863 ft | 497 kts | 45° |
| 2026-05-06 14:16 | 26.93132 | 124.36577 | 39009 ft | 498 kts | 45° |
| 2026-05-06 14:17 | 26.97587 | 124.42574 | 39034 ft | 500 kts | 45° |
| 2026-05-06 14:17 | 27.01997 | 124.48534 | 39039 ft | 500 kts | 45° |
| 2026-05-06 14:18 | 27.06444 | 124.54537 | 39046 ft | 500 kts | 45° |
| 2026-05-06 14:18 | 27.10882 | 124.60534 | 39034 ft | 499 kts | 45° |
| 2026-05-06 14:19 | 27.15309 | 124.66528 | 39031 ft | 499 kts | 45° |
| 2026-05-06 14:19 | 27.19732 | 124.72525 | 39034 ft | 499 kts | 45° |
| 2026-05-06 14:20 | 27.24124 | 124.78491 | 39043 ft | 498 kts | 45° |
| 2026-05-06 14:20 | 27.28535 | 124.84490 | 39034 ft | 498 kts | 45° |
| 2026-05-06 14:21 | 27.32946 | 124.90495 | 39034 ft | 498 kts | 45° |
| 2026-05-06 14:21 | 27.37350 | 124.96500 | 39034 ft | 498 kts | 45° |
| 2026-05-06 14:22 | 27.41726 | 125.02467 | 39047 ft | 497 kts | 45° |
| 2026-05-06 14:22 | 27.46144 | 125.08425 | 39019 ft | 495 kts | 44° |
| 2026-05-06 14:23 | 27.50559 | 125.14368 | 39034 ft | 495 kts | 44° |
| 2026-05-06 14:23 | 27.54972 | 125.20325 | 39035 ft | 495 kts | 45° |
| 2026-05-06 14:24 | 27.59347 | 125.26248 | 39036 ft | 495 kts | 45° |
| 2026-05-06 14:24 | 27.63738 | 125.32205 | 39046 ft | 493 kts | 45° |
| 2026-05-06 14:25 | 27.68112 | 125.38144 | 39036 ft | 492 kts | 45° |
| 2026-05-06 14:25 | 27.72488 | 125.44093 | 39032 ft | 492 kts | 45° |
| 2026-05-06 14:26 | 27.76825 | 125.49997 | 39045 ft | 492 kts | 45° |
| 2026-05-06 14:26 | 27.81186 | 125.55945 | 39035 ft | 491 kts | 45° |
| 2026-05-06 14:27 | 27.85540 | 125.61890 | 39033 ft | 491 kts | 45° |
| 2026-05-06 14:27 | 27.89886 | 125.67831 | 39031 ft | 491 kts | 45° |
| 2026-05-06 14:28 | 27.94204 | 125.73742 | 39043 ft | 491 kts | 45° |
| 2026-05-06 14:28 | 27.98541 | 125.79690 | 39028 ft | 489 kts | 45° |
| 2026-05-06 14:29 | 28.02869 | 125.85633 | 39032 ft | 489 kts | 45° |
| 2026-05-06 14:29 | 28.07190 | 125.91573 | 39034 ft | 489 kts | 45° |
| 2026-05-06 14:30 | 28.11512 | 125.97523 | 39041 ft | 489 kts | 45° |
| 2026-05-06 14:30 | 28.15798 | 126.03431 | 39031 ft | 488 kts | 45° |
| 2026-05-06 14:31 | 28.20109 | 126.09382 | 39032 ft | 488 kts | 45° |
| 2026-05-06 14:31 | 28.24417 | 126.15340 | 39032 ft | 488 kts | 45° |
| 2026-05-06 14:32 | 28.28724 | 126.21301 | 39037 ft | 489 kts | 45° |
| 2026-05-06 14:32 | 28.32998 | 126.27228 | 39036 ft | 488 kts | 45° |
| 2026-05-06 14:33 | 28.37283 | 126.33180 | 39029 ft | 486 kts | 45° |
| 2026-05-06 14:33 | 28.41563 | 126.39131 | 39029 ft | 486 kts | 45° |
| 2026-05-06 14:34 | 28.45839 | 126.45083 | 39032 ft | 486 kts | 45° |
| 2026-05-06 14:34 | 28.50087 | 126.51005 | 39035 ft | 486 kts | 45° |
| 2026-05-06 14:35 | 28.54352 | 126.56962 | 39029 ft | 485 kts | 45° |
| 2026-05-06 14:35 | 28.58606 | 126.62911 | 39034 ft | 485 kts | 45° |
| 2026-05-06 14:36 | 28.62860 | 126.68865 | 39032 ft | 485 kts | 45° |
| 2026-05-06 14:36 | 28.67080 | 126.74782 | 39047 ft | 484 kts | 45° |
| 2026-05-06 14:37 | 28.71317 | 126.80734 | 39032 ft | 483 kts | 45° |
| 2026-05-06 14:37 | 28.75543 | 126.86678 | 39034 ft | 483 kts | 45° |
| 2026-05-06 14:38 | 28.79768 | 126.92627 | 39033 ft | 483 kts | 46° |
| 2026-05-06 14:38 | 28.83993 | 126.98584 | 39033 ft | 483 kts | 46° |
| 2026-05-06 14:39 | 28.88180 | 127.04498 | 39036 ft | 482 kts | 46° |
| 2026-05-06 14:39 | 28.92387 | 127.10447 | 39034 ft | 482 kts | 46° |
| 2026-05-06 14:40 | 28.96594 | 127.16405 | 39036 ft | 482 kts | 46° |
| 2026-05-06 14:40 | 29.00795 | 127.22365 | 39038 ft | 481 kts | 46° |
| 2026-05-06 14:41 | 29.04961 | 127.28282 | 39038 ft | 481 kts | 46° |
| 2026-05-06 14:41 | 29.09146 | 127.34236 | 39037 ft | 480 kts | 46° |
| 2026-05-06 14:42 | 29.13328 | 127.40192 | 39040 ft | 480 kts | 46° |
| 2026-05-06 14:42 | 29.17508 | 127.46155 | 39039 ft | 480 kts | 46° |
| 2026-05-06 14:43 | 29.21655 | 127.52079 | 39041 ft | 480 kts | 46° |
| 2026-05-06 14:43 | 29.25824 | 127.58043 | 39044 ft | 479 kts | 46° |
| 2026-05-06 14:44 | 29.29984 | 127.64003 | 39039 ft | 479 kts | 46° |
| 2026-05-06 14:45 | 29.36201 | 127.72925 | 39046 ft | 479 kts | 47° |
| 2026-05-06 14:45 | 29.40354 | 127.78896 | 39042 ft | 479 kts | 47° |
| 2026-05-06 14:46 | 29.44502 | 127.84872 | 39042 ft | 479 kts | 47° |
| 2026-05-06 14:46 | 29.48650 | 127.90854 | 39042 ft | 479 kts | 47° |
| 2026-05-06 14:47 | 29.52794 | 127.96838 | 39045 ft | 479 kts | 47° |
| 2026-05-06 14:47 | 29.56907 | 128.02786 | 39052 ft | 479 kts | 47° |
| 2026-05-06 14:48 | 29.61048 | 128.08775 | 39042 ft | 479 kts | 47° |
| 2026-05-06 14:48 | 29.65187 | 128.14770 | 39045 ft | 479 kts | 47° |
| 2026-05-06 14:49 | 29.69327 | 128.20775 | 39048 ft | 479 kts | 47° |
| 2026-05-06 14:49 | 29.73425 | 128.26732 | 39045 ft | 478 kts | 47° |
| 2026-05-06 14:50 | 29.77556 | 128.32744 | 39043 ft | 478 kts | 47° |
| 2026-05-06 14:50 | 29.81679 | 128.38754 | 39043 ft | 478 kts | 47° |
| 2026-05-06 14:51 | 29.85800 | 128.44770 | 39042 ft | 479 kts | 47° |
| 2026-05-06 14:51 | 29.89895 | 128.50757 | 39045 ft | 479 kts | 47° |
| 2026-05-06 14:52 | 29.94019 | 128.56794 | 39044 ft | 479 kts | 47° |
| 2026-05-06 14:52 | 29.98142 | 128.62839 | 39045 ft | 479 kts | 47° |
| 2026-05-06 14:53 | 30.02260 | 128.68884 | 39044 ft | 479 kts | 48° |
| 2026-05-06 14:53 | 30.06373 | 128.74934 | 39045 ft | 479 kts | 48° |
| 2026-05-06 14:54 | 30.10453 | 128.80944 | 39049 ft | 479 kts | 48° |
| 2026-05-06 14:54 | 30.14560 | 128.87002 | 39047 ft | 479 kts | 48° |
| 2026-05-06 14:55 | 30.18663 | 128.93063 | 39051 ft | 479 kts | 49° |
| 2026-05-06 14:55 | 30.22762 | 128.99128 | 39053 ft | 479 kts | 49° |
| 2026-05-06 14:56 | 30.26826 | 129.05157 | 39050 ft | 479 kts | 49° |
| 2026-05-06 14:56 | 30.30921 | 129.11233 | 39057 ft | 479 kts | 49° |
| 2026-05-06 14:57 | 30.35015 | 129.17314 | 39054 ft | 479 kts | 49° |
| 2026-05-06 14:57 | 30.39104 | 129.23400 | 39053 ft | 479 kts | 49° |
| 2026-05-06 14:58 | 30.43187 | 129.29489 | 39058 ft | 479 kts | 49° |
| 2026-05-06 14:58 | 30.47239 | 129.35540 | 39057 ft | 479 kts | 49° |
| 2026-05-06 14:59 | 30.51325 | 129.41648 | 39059 ft | 480 kts | 50° |
| 2026-05-06 14:59 | 30.55412 | 129.47771 | 39059 ft | 480 kts | 50° |
| 2026-05-06 15:00 | 30.59493 | 129.53896 | 39064 ft | 480 kts | 50° |
| 2026-05-06 15:00 | 30.63548 | 129.59989 | 39063 ft | 480 kts | 50° |
| 2026-05-06 15:01 | 30.67638 | 129.66142 | 39063 ft | 482 kts | 50° |
| 2026-05-06 15:01 | 30.71735 | 129.72316 | 39061 ft | 482 kts | 50° |
| 2026-05-06 15:02 | 30.75137 | 129.77452 | 39065 ft | 482 kts | 50° |
| 2026-05-06 15:02 | 30.79224 | 129.83629 | 39060 ft | 484 kts | 50° |
| 2026-05-06 15:03 | 30.83352 | 129.89883 | 39058 ft | 490 kts | 50° |
| 2026-05-06 15:03 | 30.87706 | 129.97606 | 39071 ft | 491 kts | 56° |
| 2026-05-06 15:04 | 30.91295 | 130.04344 | 39063 ft | 488 kts | 56° |
| 2026-05-06 15:04 | 30.94273 | 130.09975 | 39067 ft | 495 kts | 57° |
| 2026-05-06 15:05 | 30.97907 | 130.16846 | 39062 ft | 499 kts | 56° |
| 2026-05-06 15:05 | 31.02128 | 130.24829 | 39072 ft | 495 kts | 56° |
| 2026-05-06 15:06 | 31.05133 | 130.30517 | 39068 ft | 499 kts | 57° |
| 2026-05-06 15:06 | 31.08801 | 130.37466 | 39072 ft | 506 kts | 57° |
| 2026-05-06 15:07 | 31.13074 | 130.45583 | 39084 ft | 504 kts | 57° |
| 2026-05-06 15:07 | 31.16133 | 130.51406 | 39078 ft | 503 kts | 57° |
| 2026-05-06 15:08 | 31.19794 | 130.58382 | 39084 ft | 509 kts | 57° |
| 2026-05-06 15:08 | 31.23492 | 130.65444 | 39081 ft | 510 kts | 57° |
| 2026-05-06 15:09 | 31.27185 | 130.72511 | 39076 ft | 509 kts | 57° |
| 2026-05-06 15:09 | 31.30865 | 130.79563 | 39087 ft | 508 kts | 57° |
| 2026-05-06 15:10 | 31.34535 | 130.86611 | 39098 ft | 507 kts | 57° |
| 2026-05-06 15:10 | 31.38183 | 130.93624 | 39095 ft | 509 kts | 58° |
| 2026-05-06 15:11 | 31.41898 | 131.00780 | 39098 ft | 519 kts | 58° |
| 2026-05-06 15:11 | 31.45647 | 131.08022 | 39094 ft | 519 kts | 58° |
| 2026-05-06 15:12 | 31.49389 | 131.15260 | 39098 ft | 520 kts | 58° |
| 2026-05-06 15:12 | 31.53128 | 131.22510 | 39098 ft | 525 kts | 59° |
| 2026-05-06 15:13 | 31.56907 | 131.29846 | 39087 ft | 526 kts | 58° |
| 2026-05-06 15:13 | 31.60684 | 131.37192 | 39101 ft | 527 kts | 60° |
| 2026-05-06 15:14 | 31.64475 | 131.44592 | 39090 ft | 530 kts | 59° |
| 2026-05-06 15:14 | 31.68264 | 131.51999 | 39092 ft | 529 kts | 59° |
| 2026-05-06 15:15 | 31.72026 | 131.59360 | 39096 ft | 531 kts | 60° |
| 2026-05-06 15:15 | 31.75848 | 131.66865 | 39086 ft | 538 kts | 59° |
| 2026-05-06 15:16 | 31.79684 | 131.74410 | 39104 ft | 537 kts | 59° |
| 2026-05-06 15:16 | 31.83516 | 131.81959 | 39093 ft | 540 kts | 60° |
| 2026-05-06 15:17 | 31.87352 | 131.89536 | 39082 ft | 543 kts | 60° |
| 2026-05-06 15:17 | 31.91210 | 131.97167 | 39083 ft | 542 kts | 60° |
| 2026-05-06 15:18 | 31.95069 | 132.04813 | 39091 ft | 546 kts | 61° |
| 2026-05-06 15:18 | 31.98949 | 132.12522 | 39083 ft | 546 kts | 60° |
| 2026-05-06 15:19 | 32.02784 | 132.20153 | 39070 ft | 545 kts | 60° |
| 2026-05-06 15:19 | 32.06661 | 132.27885 | 39106 ft | 552 kts | 61° |
| 2026-05-06 15:20 | 32.10555 | 132.35673 | 39084 ft | 550 kts | 60° |
| 2026-05-06 15:20 | 32.14376 | 132.43480 | 39091 ft | 550 kts | 64° |
| 2026-05-06 15:21 | 32.17777 | 132.51535 | 39099 ft | 553 kts | 66° |
| 2026-05-06 15:21 | 32.21103 | 132.59699 | 39084 ft | 551 kts | 66° |
| 2026-05-06 15:22 | 32.24485 | 132.67835 | 39085 ft | 554 kts | 66° |
| 2026-05-06 15:22 | 32.27917 | 132.75992 | 39081 ft | 555 kts | 65° |
| 2026-05-06 15:23 | 32.31335 | 132.84105 | 38831 ft | 554 kts | 65° |
| 2026-05-06 15:23 | 32.33046 | 132.88172 | 38576 ft | 553 kts | 65° |
| 2026-05-06 15:23 | 32.34761 | 132.92259 | 38305 ft | 555 kts | 65° |
| 2026-05-06 15:23 | 32.36478 | 132.96355 | 38045 ft | 556 kts | 65° |
| 2026-05-06 15:24 | 32.38193 | 133.00458 | 37796 ft | 556 kts | 64° |
| 2026-05-06 15:24 | 32.39908 | 133.04558 | 37515 ft | 556 kts | 65° |
| 2026-05-06 15:24 | 32.41625 | 133.08668 | 37257 ft | 559 kts | 65° |
| 2026-05-06 15:24 | 32.43348 | 133.12800 | 37002 ft | 560 kts | 65° |
| 2026-05-06 15:25 | 32.45050 | 133.16886 | 36751 ft | 561 kts | 65° |
| 2026-05-06 15:25 | 32.46776 | 133.21033 | 36504 ft | 561 kts | 65° |
| 2026-05-06 15:25 | 32.48502 | 133.25186 | 36246 ft | 563 kts | 65° |
| 2026-05-06 15:25 | 32.50231 | 133.29349 | 35998 ft | 564 kts | 65° |
| 2026-05-06 15:26 | 32.51964 | 133.33529 | 35765 ft | 565 kts | 65° |
| 2026-05-06 15:26 | 32.53693 | 133.37706 | 35538 ft | 565 kts | 65° |
| 2026-05-06 15:26 | 32.55424 | 133.41891 | 35291 ft | 566 kts | 65° |
| 2026-05-06 15:26 | 32.57155 | 133.46082 | 35053 ft | 566 kts | 65° |
| 2026-05-06 15:27 | 32.58883 | 133.50276 | 34823 ft | 567 kts | 65° |
| 2026-05-06 15:27 | 32.60594 | 133.54429 | 34595 ft | 568 kts | 65° |
| 2026-05-06 15:27 | 32.62328 | 133.58635 | 34356 ft | 568 kts | 65° |
| 2026-05-06 15:27 | 32.64061 | 133.62848 | 34121 ft | 568 kts | 65° |
| 2026-05-06 15:28 | 32.65795 | 133.67073 | 33881 ft | 569 kts | 65° |
| 2026-05-06 15:28 | 32.67526 | 133.71291 | 33623 ft | 569 kts | 65° |
| 2026-05-06 15:28 | 32.69261 | 133.75519 | 33354 ft | 570 kts | 64° |
| 2026-05-06 15:28 | 32.70993 | 133.79744 | 33108 ft | 569 kts | 64° |
| 2026-05-06 15:29 | 32.72724 | 133.83974 | 32841 ft | 569 kts | 65° |
| 2026-05-06 15:29 | 32.74431 | 133.88150 | 32603 ft | 569 kts | 65° |
| 2026-05-06 15:29 | 32.76156 | 133.92378 | 32379 ft | 569 kts | 64° |
| 2026-05-06 15:29 | 32.77882 | 133.96616 | 32132 ft | 570 kts | 64° |
| 2026-05-06 15:30 | 32.79607 | 134.00857 | 31881 ft | 570 kts | 64° |
| 2026-05-06 15:30 | 32.81318 | 134.05104 | 31617 ft | 569 kts | 66° |
| 2026-05-06 15:30 | 32.82706 | 134.09494 | 31391 ft | 565 kts | 73° |
| 2026-05-06 15:30 | 32.83908 | 134.13930 | 31154 ft | 563 kts | 74° |
| 2026-05-06 15:31 | 32.85048 | 134.18371 | 30935 ft | 561 kts | 74° |
| 2026-05-06 15:31 | 32.86138 | 134.22748 | 30690 ft | 560 kts | 75° |
| 2026-05-06 15:31 | 32.87229 | 134.27186 | 30459 ft | 557 kts | 75° |
| 2026-05-06 15:32 | 32.89392 | 134.35999 | 29971 ft | 552 kts | 75° |
| 2026-05-06 15:32 | 32.90470 | 134.40370 | 29702 ft | 550 kts | 75° |
| 2026-05-06 15:32 | 32.91547 | 134.44730 | 29428 ft | 547 kts | 75° |
| 2026-05-06 15:32 | 32.92618 | 134.49066 | 29170 ft | 546 kts | 75° |
| 2026-05-06 15:33 | 32.93685 | 134.53391 | 28902 ft | 543 kts | 75° |
| 2026-05-06 15:33 | 32.94744 | 134.57688 | 28653 ft | 540 kts | 75° |
| 2026-05-06 15:33 | 32.95784 | 134.61917 | 28370 ft | 538 kts | 75° |
| 2026-05-06 15:33 | 32.96833 | 134.66184 | 28141 ft | 537 kts | 75° |
| 2026-05-06 15:34 | 32.98920 | 134.74710 | 28087 ft | 535 kts | 75° |
| 2026-05-06 15:34 | 33.00998 | 134.83213 | 28072 ft | 534 kts | 75° |
| 2026-05-06 15:35 | 33.03068 | 134.91714 | 28083 ft | 534 kts | 75° |
| 2026-05-06 15:35 | 33.05113 | 135.00158 | 28082 ft | 534 kts | 75° |
| 2026-05-06 15:36 | 33.07174 | 135.08679 | 28085 ft | 536 kts | 75° |
| 2026-05-06 15:36 | 33.09736 | 135.17002 | 28087 ft | 536 kts | 61° |
| 2026-05-06 15:37 | 33.11758 | 135.20734 | 28086 ft | 535 kts | 50° |
| 2026-05-06 15:37 | 33.14283 | 135.23959 | 28090 ft | 531 kts | 38° |
| 2026-05-06 15:37 | 33.19982 | 135.29437 | 28096 ft | 529 kts | 33° |
| 2026-05-06 15:38 | 33.25878 | 135.34679 | 28083 ft | 528 kts | 33° |
| 2026-05-06 15:38 | 33.31768 | 135.39919 | 28080 ft | 528 kts | 33° |
| 2026-05-06 15:39 | 33.37644 | 135.45220 | 28093 ft | 530 kts | 34° |
| 2026-05-06 15:39 | 33.43509 | 135.50558 | 28091 ft | 530 kts | 33° |
| 2026-05-06 15:40 | 33.49341 | 135.55861 | 28112 ft | 529 kts | 33° |
| 2026-05-06 15:40 | 33.55178 | 135.61181 | 27780 ft | 523 kts | 33° |
| 2026-05-06 15:41 | 33.58072 | 135.63821 | 27009 ft | 522 kts | 33° |
| 2026-05-06 15:41 | 33.60950 | 135.66450 | 26387 ft | 518 kts | 34° |
| 2026-05-06 15:41 | 33.63799 | 135.69055 | 25807 ft | 512 kts | 34° |
| 2026-05-06 15:41 | 33.66615 | 135.71635 | 25275 ft | 506 kts | 34° |
| 2026-05-06 15:42 | 33.69393 | 135.74183 | 24735 ft | 500 kts | 34° |
| 2026-05-06 15:42 | 33.72117 | 135.76652 | 24187 ft | 494 kts | 34° |
| 2026-05-06 15:42 | 33.74851 | 135.79119 | 23652 ft | 489 kts | 34° |
| 2026-05-06 15:42 | 33.77552 | 135.81550 | 23040 ft | 481 kts | 34° |
| 2026-05-06 15:43 | 33.80206 | 135.83945 | 22482 ft | 473 kts | 34° |
| 2026-05-06 15:43 | 33.82820 | 135.86303 | 21970 ft | 466 kts | 34° |
| 2026-05-06 15:43 | 33.85391 | 135.88622 | 21427 ft | 459 kts | 35° |
| 2026-05-06 15:43 | 33.87921 | 135.90912 | 20904 ft | 452 kts | 35° |
| 2026-05-06 15:44 | 33.90415 | 135.93173 | 20365 ft | 445 kts | 35° |
| 2026-05-06 15:44 | 33.92842 | 135.95370 | 19852 ft | 439 kts | 35° |
| 2026-05-06 15:44 | 33.95271 | 135.97570 | 19326 ft | 435 kts | 34° |
| 2026-05-06 15:44 | 33.97676 | 135.99749 | 18803 ft | 431 kts | 35° |
| 2026-05-06 15:45 | 34.00066 | 136.01916 | 18276 ft | 428 kts | 35° |
| 2026-05-06 15:45 | 34.02431 | 136.04066 | 17693 ft | 424 kts | 36° |
| 2026-05-06 15:45 | 34.04773 | 136.06202 | 17181 ft | 419 kts | 36° |
| 2026-05-06 15:45 | 34.07084 | 136.08313 | 16655 ft | 415 kts | 36° |
| 2026-05-06 15:46 | 34.09372 | 136.10402 | 16140 ft | 410 kts | 36° |
| 2026-05-06 15:46 | 34.11640 | 136.12473 | 15629 ft | 406 kts | 36° |
| 2026-05-06 15:46 | 34.13881 | 136.14521 | 15136 ft | 402 kts | 36° |
| 2026-05-06 15:46 | 34.16070 | 136.16520 | 14636 ft | 398 kts | 36° |
| 2026-05-06 15:47 | 34.18268 | 136.18527 | 14136 ft | 394 kts | 36° |
| 2026-05-06 15:47 | 34.20444 | 136.20522 | 13610 ft | 390 kts | 37° |
| 2026-05-06 15:47 | 34.22596 | 136.22489 | 13124 ft | 385 kts | 36° |
| 2026-05-06 15:47 | 34.24722 | 136.24421 | 12594 ft | 381 kts | 36° |
| 2026-05-06 15:48 | 34.26836 | 136.26343 | 12000 ft | 379 kts | 36° |
| 2026-05-06 15:48 | 34.28929 | 136.28249 | 11494 ft | 375 kts | 36° |
| 2026-05-06 15:48 | 34.30978 | 136.30120 | 11198 ft | 362 kts | 36° |
| 2026-05-06 15:48 | 34.32954 | 136.31922 | 10981 ft | 349 kts | 36° |
| 2026-05-06 15:49 | 34.34825 | 136.33643 | 10789 ft | 336 kts | 36° |
| 2026-05-06 15:49 | 34.36653 | 136.35307 | 10570 ft | 323 kts | 36° |
| 2026-05-06 15:49 | 34.38412 | 136.36913 | 10397 ft | 311 kts | 36° |
| 2026-05-06 15:49 | 34.40105 | 136.38461 | 10238 ft | 299 kts | 36° |
| 2026-05-06 15:50 | 34.41632 | 136.40099 | 10063 ft | 289 kts | 49° |
| 2026-05-06 15:50 | 34.42660 | 136.42130 | 9881 ft | 278 kts | 65° |
| 2026-05-06 15:50 | 34.43441 | 136.44222 | 9714 ft | 267 kts | 67° |
| 2026-05-06 15:50 | 34.44169 | 136.46247 | 9532 ft | 257 kts | 66° |
| 2026-05-06 15:51 | 34.44871 | 136.48193 | 9340 ft | 249 kts | 67° |
| 2026-05-06 15:51 | 34.45549 | 136.50066 | 9012 ft | 244 kts | 67° |
| 2026-05-06 15:51 | 34.46230 | 136.51938 | 8566 ft | 241 kts | 67° |
| 2026-05-06 15:51 | 34.46905 | 136.53791 | 8291 ft | 241 kts | 67° |
| 2026-05-06 15:52 | 34.47581 | 136.55641 | 8035 ft | 239 kts | 67° |
| 2026-05-06 15:52 | 34.48254 | 136.57484 | 7829 ft | 239 kts | 68° |
| 2026-05-06 15:52 | 34.48923 | 136.59318 | 7628 ft | 237 kts | 68° |
| 2026-05-06 15:52 | 34.49589 | 136.61145 | 7437 ft | 236 kts | 68° |
| 2026-05-06 15:53 | 34.50252 | 136.62966 | 7278 ft | 236 kts | 68° |
| 2026-05-06 15:53 | 34.50916 | 136.64786 | 7206 ft | 235 kts | 68° |
| 2026-05-06 15:53 | 34.51567 | 136.66573 | 7110 ft | 235 kts | 68° |
| 2026-05-06 15:53 | 34.52225 | 136.68382 | 6994 ft | 235 kts | 68° |
| 2026-05-06 15:54 | 34.52888 | 136.70201 | 6610 ft | 238 kts | 68° |
| 2026-05-06 15:54 | 34.53560 | 136.72051 | 6183 ft | 241 kts | 68° |
| 2026-05-06 15:54 | 34.54238 | 136.73915 | 5808 ft | 242 kts | 68° |
| 2026-05-06 15:54 | 34.54917 | 136.75784 | 5412 ft | 242 kts | 68° |
| 2026-05-06 15:55 | 34.55597 | 136.77657 | 5048 ft | 243 kts | 68° |
| 2026-05-06 15:55 | 34.56278 | 136.79533 | 4680 ft | 243 kts | 68° |
| 2026-05-06 15:55 | 34.56948 | 136.81382 | 4348 ft | 241 kts | 68° |
| 2026-05-06 15:55 | 34.57622 | 136.83229 | 4080 ft | 237 kts | 67° |
| 2026-05-06 15:56 | 34.58469 | 136.84876 | 3965 ft | 225 kts | 48° |
| 2026-05-06 15:56 | 34.59738 | 136.85910 | 3976 ft | 221 kts | 19° |
| 2026-05-06 15:56 | 34.61233 | 136.86239 | 3892 ft | 219 kts | 359° |
| 2026-05-06 15:56 | 34.62735 | 136.86007 | 3792 ft | 217 kts | 345° |
| 2026-05-06 15:57 | 34.64216 | 136.85613 | 3469 ft | 219 kts | 347° |
| 2026-05-06 15:57 | 34.65726 | 136.85244 | 3089 ft | 221 kts | 349° |
| 2026-05-06 15:57 | 34.67208 | 136.84901 | 2976 ft | 213 kts | 349° |
| 2026-05-06 15:57 | 34.68642 | 136.84577 | 2990 ft | 213 kts | 349° |
| 2026-05-06 15:58 | 34.70099 | 136.84248 | 2870 ft | 211 kts | 349° |
| 2026-05-06 15:58 | 34.71518 | 136.83916 | 2638 ft | 205 kts | 349° |
| 2026-05-06 15:58 | 34.72907 | 136.83586 | 2354 ft | 201 kts | 350° |
| 2026-05-06 15:58 | 34.74256 | 136.83267 | 2067 ft | 192 kts | 350° |
| 2026-05-06 15:59 | 34.75522 | 136.82969 | 1804 ft | 178 kts | 350° |
| 2026-05-06 15:59 | 34.76690 | 136.82694 | 1580 ft | 165 kts | 350° |
| 2026-05-06 15:59 | 34.77781 | 136.82437 | 1363 ft | 154 kts | 349° |
| 2026-05-06 15:59 | 34.78788 | 136.82199 | 1161 ft | 145 kts | 349° |
| 2026-05-06 16:00 | 34.79759 | 136.81970 | 969 ft | 141 kts | 349° |
| 2026-05-06 16:00 | 34.80718 | 136.81743 | 782 ft | 140 kts | 348° |
| 2026-05-06 16:00 | 34.81673 | 136.81518 | 595 ft | 140 kts | 348° |
| 2026-05-06 16:00 | 34.82625 | 136.81293 | 407 ft | 139 kts | 348° |
| 2026-05-06 16:01 | 34.83580 | 136.81073 | 217 ft | 139 kts | 348° |
| 2026-05-06 16:01 | 34.84537 | 136.80856 | 43 ft | 140 kts | 348° |
| 2026-05-06 16:01 | 34.85358 | 136.80652 | 30 ft | 85 kts | 349° |
| 2026-05-06 16:01 | 34.85643 | 136.80584 | 28 ft | 0 kts | 349° |
| 2026-05-06 16:02 | 34.85684 | 136.80575 | 28 ft | 14 kts | 354° |
| 2026-05-06 16:02 | 34.85845 | 136.80600 | 30 ft | 23 kts | 17° |
| 2026-05-06 16:02 | 34.85902 | 136.80623 | 31 ft | 9 kts | 20° |
| 2026-05-06 16:02 | 34.85973 | 136.80653 | 32 ft | 13 kts | 19° |
| 2026-05-06 16:03 | 34.86027 | 136.80735 | 34 ft | 14 kts | 79° |
| 2026-05-06 16:03 | 34.86049 | 136.80874 | 34 ft | 19 kts | 79° |
| 2026-05-06 16:03 | 34.86077 | 136.81051 | 34 ft | 23 kts | 79° |
| 2026-05-06 16:03 | 34.86182 | 136.81143 | 34 ft | 16 kts | 353° |
| 2026-05-06 16:04 | 34.86275 | 136.81129 | 34 ft | 11 kts | 16° |
| 2026-05-06 16:04 | 34.86292 | 136.81192 | 34 ft | 0 kts | 85° |
| 2026-05-06 16:06 | 34.82884 | 136.81232 | 365 ft | 140 kts | 348° |
| 2026-05-06 16:06 | 34.83444 | 136.81103 | 240 ft | 139 kts | 348° |
| 2026-05-06 16:06 | 34.84499 | 136.80865 | 44 ft | 140 kts | 348° |
| 2026-05-06 16:07 | 34.85383 | 136.80646 | 30 ft | 81 kts | 349° |
| 2026-05-06 16:07 | 34.83765 | 136.81030 | 181 ft | 140 kts | 347° |
| 2026-05-06 16:07 | 34.84683 | 136.80823 | 33 ft | 138 kts | 349° |
| 2026-05-06 16:07 | 34.86292 | 136.81192 | 34 ft | 0 kts | 85° |
| 2026-05-06 16:09 | 34.86253 | 136.81126 | 34 ft | 14 kts | 349° |
| 2026-05-06 16:09 | 34.82330 | 136.81362 | 468 ft | 146 kts | 348° |
| 2026-05-06 16:10 | 34.80812 | 136.81721 | 761 ft | 141 kts | 348° |
| 2026-05-06 16:11 | 34.71030 | 136.84032 | 2729 ft | 206 kts | 349° |
| 2026-05-06 16:11 | 34.86292 | 136.81192 | 34 ft | 3 kts | 85° |
| 2026-05-06 16:11 | 34.79251 | 136.82090 | 1045 ft | 147 kts | 349° |
| 2026-05-06 16:13 | 34.80113 | 136.81886 | 891 ft | 140 kts | 349° |
| 2026-05-06 16:14 | 34.71121 | 136.84010 | 2689 ft | 206 kts | 349° |
| 2026-05-06 16:14 | 34.80224 | 136.81860 | 870 ft | 165 kts | 348° |
| 2026-05-06 16:16 | 34.80659 | 136.81757 | 787 ft | 140 kts | 348° |
| 2026-05-06 16:16 | 34.81643 | 136.81525 | 595 ft | 140 kts | 348° |
| 2026-05-06 16:17 | 34.82304 | 136.81369 | 465 ft | 139 kts | 348° |
| 2026-05-06 16:17 | 34.83271 | 136.81143 | 271 ft | 140 kts | 348° |
| 2026-05-06 16:17 | 34.81483 | 136.81563 | 635 ft | 144 kts | 348° |